sensor_id;sensor_type;location;lat;lon;timestamp;temperature;humidity
23471;DHT22;11908;50.806;4.424;2023-01-16T00:00:29;5.20;99.90
23471;DHT22;11908;50.806;4.424;2023-01-16T00:02:54;5.20;99.90
23471;DHT22;11908;50.806;4.424;2023-01-16T00:05:20;5.20;99.90
23471;DHT22;11908;50.806;4.424;2023-01-16T00:07:46;5.20;99.90
23471;DHT22;11908;50.806;4.424;2023-01-16T00:10:11;5.20;99.90
23471;DHT22;11908;50.806;4.424;2023-01-16T00:12:37;5.30;99.90
23471;DHT22;11908;50.806;4.424;2023-01-16T00:15:03;5.40;99.90
23471;DHT22;11908;50.806;4.424;2023-01-16T00:17:29;5.40;99.90
23471;DHT22;11908;50.806;4.424;2023-01-16T00:19:55;5.40;99.90
23471;DHT22;11908;50.806;4.424;2023-01-16T00:22:21;5.40;99.90
23471;DHT22;11908;50.806;4.424;2023-01-16T00:24:46;5.40;99.90
23471;DHT22;11908;50.806;4.424;2023-01-16T00:27:12;5.30;99.90
23471;DHT22;11908;50.806;4.424;2023-01-16T00:29:38;5.30;99.90
23471;DHT22;11908;50.806;4.424;2023-01-16T00:32:03;5.30;99.90
23471;DHT22;11908;50.806;4.424;2023-01-16T00:34:29;5.30;99.90
23471;DHT22;11908;50.806;4.424;2023-01-16T00:36:54;5.20;99.90
23471;DHT22;11908;50.806;4.424;2023-01-16T00:39:20;5.30;99.90
23471;DHT22;11908;50.806;4.424;2023-01-16T00:41:46;5.20;99.90
23471;DHT22;11908;50.806;4.424;2023-01-16T00:44:11;5.20;99.90
23471;DHT22;11908;50.806;4.424;2023-01-16T00:46:37;5.10;99.90
23471;DHT22;11908;50.806;4.424;2023-01-16T00:49:03;5.10;99.90
23471;DHT22;11908;50.806;4.424;2023-01-16T00:51:30;5.10;99.90
23471;DHT22;11908;50.806;4.424;2023-01-16T00:53:55;5.20;99.90
23471;DHT22;11908;50.806;4.424;2023-01-16T00:56:21;5.20;99.90
23471;DHT22;11908;50.806;4.424;2023-01-16T00:58:46;5.10;99.90
23471;DHT22;11908;50.806;4.424;2023-01-16T01:01:12;5.10;99.90
23471;DHT22;11908;50.806;4.424;2023-01-16T01:03:38;5.10;99.90
23471;DHT22;11908;50.806;4.424;2023-01-16T01:06:08;5.10;99.90
23471;DHT22;11908;50.806;4.424;2023-01-16T01:08:34;5.20;99.90
23471;DHT22;11908;50.806;4.424;2023-01-16T01:11:09;5.20;99.90
23471;DHT22;11908;50.806;4.424;2023-01-16T01:13:35;5.20;99.90
23471;DHT22;11908;50.806;4.424;2023-01-16T01:16:01;5.20;99.90
23471;DHT22;11908;50.806;4.424;2023-01-16T01:18:27;5.20;99.90
23471;DHT22;11908;50.806;4.424;2023-01-16T01:20:52;5.30;99.90
23471;DHT22;11908;50.806;4.424;2023-01-16T01:23:18;5.30;99.90
23471;DHT22;11908;50.806;4.424;2023-01-16T01:25:44;5.40;99.90
23471;DHT22;11908;50.806;4.424;2023-01-16T01:28:10;5.40;99.90
23471;DHT22;11908;50.806;4.424;2023-01-16T01:30:37;5.40;99.90
23471;DHT22;11908;50.806;4.424;2023-01-16T01:33:02;5.50;99.90
23471;DHT22;11908;50.806;4.424;2023-01-16T01:35:28;5.50;99.90
23471;DHT22;11908;50.806;4.424;2023-01-16T01:37:54;5.40;99.90
23471;DHT22;11908;50.806;4.424;2023-01-16T01:40:19;5.60;99.90
23471;DHT22;11908;50.806;4.424;2023-01-16T01:42:45;5.60;99.90
23471;DHT22;11908;50.806;4.424;2023-01-16T01:45:30;5.70;99.90
23471;DHT22;11908;50.806;4.424;2023-01-16T01:50:42;5.70;99.90
23471;DHT22;11908;50.806;4.424;2023-01-16T01:53:12;5.60;99.90
23471;DHT22;11908;50.806;4.424;2023-01-16T01:55:40;5.70;99.90
23471;DHT22;11908;50.806;4.424;2023-01-16T01:58:06;5.80;99.90
23471;DHT22;11908;50.806;4.424;2023-01-16T02:04:02;5.90;99.90
23471;DHT22;11908;50.806;4.424;2023-01-16T02:06:34;6.00;99.90
23471;DHT22;11908;50.806;4.424;2023-01-16T02:09:03;6.10;99.90
23471;DHT22;11908;50.806;4.424;2023-01-16T02:11:40;6.10;99.90
23471;DHT22;11908;50.806;4.424;2023-01-16T02:14:09;6.10;99.90
23471;DHT22;11908;50.806;4.424;2023-01-16T02:16:37;6.00;99.90
23471;DHT22;11908;50.806;4.424;2023-01-16T02:22:28;6.00;99.90
23471;DHT22;11908;50.806;4.424;2023-01-16T02:27:57;6.10;99.90
23471;DHT22;11908;50.806;4.424;2023-01-16T02:33:04;6.10;99.90
23471;DHT22;11908;50.806;4.424;2023-01-16T02:35:58;6.10;99.90
23471;DHT22;11908;50.806;4.424;2023-01-16T02:38:29;6.10;99.90
23471;DHT22;11908;50.806;4.424;2023-01-16T02:43:41;6.20;99.90
23471;DHT22;11908;50.806;4.424;2023-01-16T02:51:43;6.30;99.90
23471;DHT22;11908;50.806;4.424;2023-01-16T02:54:27;6.30;99.90
23471;DHT22;11908;50.806;4.424;2023-01-16T02:57:01;6.30;99.90
23471;DHT22;11908;50.806;4.424;2023-01-16T02:59:29;6.40;99.90
23471;DHT22;11908;50.806;4.424;2023-01-16T03:01:58;6.50;99.90
23471;DHT22;11908;50.806;4.424;2023-01-16T03:09:53;6.40;99.90
23471;DHT22;11908;50.806;4.424;2023-01-16T03:15:31;6.60;99.90
23471;DHT22;11908;50.806;4.424;2023-01-16T03:31:46;6.60;99.90
23471;DHT22;11908;50.806;4.424;2023-01-16T03:37:17;6.70;99.90
23471;DHT22;11908;50.806;4.424;2023-01-16T03:39:56;6.60;99.90
23471;DHT22;11908;50.806;4.424;2023-01-16T03:42:28;6.60;99.90
23471;DHT22;11908;50.806;4.424;2023-01-16T03:45:03;6.50;99.90
23471;DHT22;11908;50.806;4.424;2023-01-16T03:47:36;6.50;99.90
23471;DHT22;11908;50.806;4.424;2023-01-16T03:50:06;6.50;99.90
23471;DHT22;11908;50.806;4.424;2023-01-16T03:52:38;6.60;99.90
23471;DHT22;11908;50.806;4.424;2023-01-16T03:58:03;6.70;99.90
23471;DHT22;11908;50.806;4.424;2023-01-16T04:00:39;6.60;99.90
23471;DHT22;11908;50.806;4.424;2023-01-16T04:03:18;6.60;99.90
23471;DHT22;11908;50.806;4.424;2023-01-16T04:06:04;6.70;99.90
23471;DHT22;11908;50.806;4.424;2023-01-16T04:08:35;6.70;99.90
23471;DHT22;11908;50.806;4.424;2023-01-16T04:11:03;6.60;99.90
23471;DHT22;11908;50.806;4.424;2023-01-16T04:13:36;6.60;99.90
23471;DHT22;11908;50.806;4.424;2023-01-16T04:16:06;6.60;99.90
23471;DHT22;11908;50.806;4.424;2023-01-16T04:18:34;6.50;99.90
23471;DHT22;11908;50.806;4.424;2023-01-16T04:21:04;6.50;99.90
23471;DHT22;11908;50.806;4.424;2023-01-16T04:23:30;6.60;99.90
23471;DHT22;11908;50.806;4.424;2023-01-16T04:25:56;6.60;99.90
23471;DHT22;11908;50.806;4.424;2023-01-16T04:28:21;6.50;99.90
23471;DHT22;11908;50.806;4.424;2023-01-16T04:30:47;6.40;99.90
23471;DHT22;11908;50.806;4.424;2023-01-16T04:33:13;6.40;99.90
23471;DHT22;11908;50.806;4.424;2023-01-16T04:35:38;6.50;99.90
23471;DHT22;11908;50.806;4.424;2023-01-16T04:38:04;6.40;99.90
23471;DHT22;11908;50.806;4.424;2023-01-16T04:40:30;6.40;99.90
23471;DHT22;11908;50.806;4.424;2023-01-16T04:42:55;6.40;99.90
23471;DHT22;11908;50.806;4.424;2023-01-16T04:45:22;6.30;99.90
23471;DHT22;11908;50.806;4.424;2023-01-16T04:47:48;6.40;99.90
23471;DHT22;11908;50.806;4.424;2023-01-16T04:50:15;6.40;99.90
23471;DHT22;11908;50.806;4.424;2023-01-16T04:52:41;6.30;99.90
23471;DHT22;11908;50.806;4.424;2023-01-16T04:55:07;6.40;99.90
23471;DHT22;11908;50.806;4.424;2023-01-16T04:57:33;6.40;99.90
23471;DHT22;11908;50.806;4.424;2023-01-16T04:59:59;6.40;99.90
23471;DHT22;11908;50.806;4.424;2023-01-16T05:02:25;6.40;99.90
23471;DHT22;11908;50.806;4.424;2023-01-16T05:04:51;6.40;99.90
23471;DHT22;11908;50.806;4.424;2023-01-16T05:07:17;6.30;99.90
23471;DHT22;11908;50.806;4.424;2023-01-16T05:09:42;6.30;99.90
23471;DHT22;11908;50.806;4.424;2023-01-16T05:12:08;6.30;99.90
23471;DHT22;11908;50.806;4.424;2023-01-16T05:14:34;6.30;99.90
23471;DHT22;11908;50.806;4.424;2023-01-16T05:16:59;6.20;99.90
23471;DHT22;11908;50.806;4.424;2023-01-16T05:19:25;6.30;99.90
23471;DHT22;11908;50.806;4.424;2023-01-16T05:21:51;6.30;99.90
23471;DHT22;11908;50.806;4.424;2023-01-16T05:24:16;6.10;99.90
23471;DHT22;11908;50.806;4.424;2023-01-16T05:26:42;6.10;99.90
23471;DHT22;11908;50.806;4.424;2023-01-16T05:29:08;6.10;99.90
23471;DHT22;11908;50.806;4.424;2023-01-16T05:31:34;6.00;99.90
23471;DHT22;11908;50.806;4.424;2023-01-16T05:34:00;6.00;99.90
23471;DHT22;11908;50.806;4.424;2023-01-16T05:36:25;6.00;99.90
23471;DHT22;11908;50.806;4.424;2023-01-16T05:38:51;6.00;99.90
23471;DHT22;11908;50.806;4.424;2023-01-16T05:41:17;6.00;99.90
23471;DHT22;11908;50.806;4.424;2023-01-16T05:43:43;5.90;99.90
23471;DHT22;11908;50.806;4.424;2023-01-16T05:46:09;5.80;99.90
23471;DHT22;11908;50.806;4.424;2023-01-16T05:48:35;5.80;99.90
23471;DHT22;11908;50.806;4.424;2023-01-16T05:51:02;5.70;99.90
23471;DHT22;11908;50.806;4.424;2023-01-16T05:53:28;5.60;99.90
23471;DHT22;11908;50.806;4.424;2023-01-16T05:55:56;5.50;99.90
23471;DHT22;11908;50.806;4.424;2023-01-16T05:58:22;5.50;99.90
23471;DHT22;11908;50.806;4.424;2023-01-16T06:00:48;5.50;99.90
23471;DHT22;11908;50.806;4.424;2023-01-16T06:03:14;5.40;99.90
23471;DHT22;11908;50.806;4.424;2023-01-16T06:05:43;5.50;99.90
23471;DHT22;11908;50.806;4.424;2023-01-16T06:08:08;5.50;99.90
23471;DHT22;11908;50.806;4.424;2023-01-16T06:10:34;5.50;99.90
23471;DHT22;11908;50.806;4.424;2023-01-16T06:13:01;5.50;99.90
23471;DHT22;11908;50.806;4.424;2023-01-16T06:15:27;5.50;99.90
23471;DHT22;11908;50.806;4.424;2023-01-16T06:17:53;5.50;99.90
23471;DHT22;11908;50.806;4.424;2023-01-16T06:20:19;5.50;99.90
23471;DHT22;11908;50.806;4.424;2023-01-16T06:22:45;5.40;99.90
23471;DHT22;11908;50.806;4.424;2023-01-16T06:25:11;5.40;99.90
23471;DHT22;11908;50.806;4.424;2023-01-16T06:27:37;5.30;99.90
23471;DHT22;11908;50.806;4.424;2023-01-16T06:30:04;5.30;99.90
23471;DHT22;11908;50.806;4.424;2023-01-16T06:32:30;5.30;99.90
23471;DHT22;11908;50.806;4.424;2023-01-16T06:34:55;5.30;99.90
23471;DHT22;11908;50.806;4.424;2023-01-16T06:37:21;5.30;99.90
23471;DHT22;11908;50.806;4.424;2023-01-16T06:39:47;5.40;99.90
23471;DHT22;11908;50.806;4.424;2023-01-16T06:42:12;5.40;99.90
23471;DHT22;11908;50.806;4.424;2023-01-16T06:44:38;5.30;99.90
23471;DHT22;11908;50.806;4.424;2023-01-16T06:47:04;5.30;99.90
23471;DHT22;11908;50.806;4.424;2023-01-16T06:49:30;5.30;99.90
23471;DHT22;11908;50.806;4.424;2023-01-16T06:51:55;5.30;99.90
23471;DHT22;11908;50.806;4.424;2023-01-16T06:54:21;5.40;99.90
23471;DHT22;11908;50.806;4.424;2023-01-16T06:56:47;5.40;99.90
23471;DHT22;11908;50.806;4.424;2023-01-16T06:59:13;5.40;99.90
23471;DHT22;11908;50.806;4.424;2023-01-16T07:01:38;5.40;99.90
23471;DHT22;11908;50.806;4.424;2023-01-16T07:04:04;5.30;99.90
23471;DHT22;11908;50.806;4.424;2023-01-16T07:06:32;5.30;99.90
23471;DHT22;11908;50.806;4.424;2023-01-16T07:08:58;5.30;99.90
23471;DHT22;11908;50.806;4.424;2023-01-16T07:11:24;5.20;99.90
23471;DHT22;11908;50.806;4.424;2023-01-16T07:13:49;5.20;99.90
23471;DHT22;11908;50.806;4.424;2023-01-16T07:16:35;5.20;99.90
23471;DHT22;11908;50.806;4.424;2023-01-16T07:19:19;5.30;99.90
23471;DHT22;11908;50.806;4.424;2023-01-16T07:22:03;5.20;99.90
23471;DHT22;11908;50.806;4.424;2023-01-16T07:24:48;5.20;99.90
23471;DHT22;11908;50.806;4.424;2023-01-16T07:27:14;5.10;99.90
23471;DHT22;11908;50.806;4.424;2023-01-16T07:29:40;5.10;99.90
23471;DHT22;11908;50.806;4.424;2023-01-16T07:32:06;5.10;99.90
23471;DHT22;11908;50.806;4.424;2023-01-16T07:34:32;5.10;99.90
23471;DHT22;11908;50.806;4.424;2023-01-16T07:37:00;5.20;99.90
23471;DHT22;11908;50.806;4.424;2023-01-16T07:39:26;5.10;99.90
23471;DHT22;11908;50.806;4.424;2023-01-16T07:41:51;5.10;99.90
23471;DHT22;11908;50.806;4.424;2023-01-16T07:44:17;5.20;99.90
23471;DHT22;11908;50.806;4.424;2023-01-16T07:46:43;5.20;99.90
23471;DHT22;11908;50.806;4.424;2023-01-16T07:49:09;5.20;99.90
23471;DHT22;11908;50.806;4.424;2023-01-16T07:51:34;5.20;99.90
23471;DHT22;11908;50.806;4.424;2023-01-16T07:54:00;5.20;99.90
23471;DHT22;11908;50.806;4.424;2023-01-16T07:56:29;5.30;99.90
23471;DHT22;11908;50.806;4.424;2023-01-16T07:58:55;5.30;99.90
23471;DHT22;11908;50.806;4.424;2023-01-16T08:01:20;5.30;99.90
23471;DHT22;11908;50.806;4.424;2023-01-16T08:03:46;5.30;99.90
23471;DHT22;11908;50.806;4.424;2023-01-16T08:06:11;5.30;99.90
23471;DHT22;11908;50.806;4.424;2023-01-16T08:08:37;5.40;99.90
23471;DHT22;11908;50.806;4.424;2023-01-16T08:11:03;5.30;99.90
23471;DHT22;11908;50.806;4.424;2023-01-16T08:13:48;5.40;99.90
23471;DHT22;11908;50.806;4.424;2023-01-16T08:16:14;5.50;99.90
23471;DHT22;11908;50.806;4.424;2023-01-16T08:18:40;5.50;99.90
23471;DHT22;11908;50.806;4.424;2023-01-16T08:21:05;5.50;99.90
23471;DHT22;11908;50.806;4.424;2023-01-16T08:23:31;5.60;99.90
23471;DHT22;11908;50.806;4.424;2023-01-16T08:25:57;5.60;99.90
23471;DHT22;11908;50.806;4.424;2023-01-16T08:28:26;5.70;99.90
23471;DHT22;11908;50.806;4.424;2023-01-16T08:30:51;5.60;99.90
23471;DHT22;11908;50.806;4.424;2023-01-16T08:33:17;5.70;99.90
23471;DHT22;11908;50.806;4.424;2023-01-16T08:35:43;5.70;99.90
23471;DHT22;11908;50.806;4.424;2023-01-16T08:38:08;5.80;99.90
23471;DHT22;11908;50.806;4.424;2023-01-16T08:40:34;5.80;99.90
23471;DHT22;11908;50.806;4.424;2023-01-16T08:42:59;5.90;99.90
23471;DHT22;11908;50.806;4.424;2023-01-16T08:45:43;5.90;99.90
23471;DHT22;11908;50.806;4.424;2023-01-16T08:48:28;5.90;99.90
23471;DHT22;11908;50.806;4.424;2023-01-16T08:51:17;6.00;99.90
23471;DHT22;11908;50.806;4.424;2023-01-16T08:53:55;5.90;99.90
23471;DHT22;11908;50.806;4.424;2023-01-16T08:56:22;6.00;99.90
23471;DHT22;11908;50.806;4.424;2023-01-16T08:58:48;6.00;99.90
23471;DHT22;11908;50.806;4.424;2023-01-16T09:01:14;6.00;99.90
23471;DHT22;11908;50.806;4.424;2023-01-16T09:03:40;6.10;99.90
23471;DHT22;11908;50.806;4.424;2023-01-16T09:06:06;6.00;99.90
23471;DHT22;11908;50.806;4.424;2023-01-16T09:08:32;6.00;99.90
23471;DHT22;11908;50.806;4.424;2023-01-16T09:10:58;6.00;99.90
23471;DHT22;11908;50.806;4.424;2023-01-16T09:13:42;6.00;99.90
23471;DHT22;11908;50.806;4.424;2023-01-16T09:16:15;6.10;99.90
23471;DHT22;11908;50.806;4.424;2023-01-16T09:18:41;6.10;99.90
23471;DHT22;11908;50.806;4.424;2023-01-16T09:21:07;6.20;99.90
23471;DHT22;11908;50.806;4.424;2023-01-16T09:23:32;6.10;99.90
23471;DHT22;11908;50.806;4.424;2023-01-16T09:25:58;6.30;99.90
23471;DHT22;11908;50.806;4.424;2023-01-16T09:28:24;6.40;99.90
23471;DHT22;11908;50.806;4.424;2023-01-16T09:30:51;6.40;99.90
23471;DHT22;11908;50.806;4.424;2023-01-16T09:33:17;6.40;99.90
23471;DHT22;11908;50.806;4.424;2023-01-16T09:35:42;6.50;99.90
23471;DHT22;11908;50.806;4.424;2023-01-16T09:38:08;6.60;99.90
23471;DHT22;11908;50.806;4.424;2023-01-16T09:40:34;6.70;99.90
23471;DHT22;11908;50.806;4.424;2023-01-16T09:45:45;6.70;99.90
23471;DHT22;11908;50.806;4.424;2023-01-16T09:48:17;6.70;99.90
23471;DHT22;11908;50.806;4.424;2023-01-16T09:50:50;6.60;99.90
23471;DHT22;11908;50.806;4.424;2023-01-16T09:53:38;6.60;99.90
23471;DHT22;11908;50.806;4.424;2023-01-16T09:56:28;6.60;99.90
23471;DHT22;11908;50.806;4.424;2023-01-16T10:01:47;6.70;99.90
23471;DHT22;11908;50.806;4.424;2023-01-16T10:04:20;6.80;99.90
23471;DHT22;11908;50.806;4.424;2023-01-16T10:07:05;6.90;99.90
23471;DHT22;11908;50.806;4.424;2023-01-16T10:12:08;6.80;99.90
23471;DHT22;11908;50.806;4.424;2023-01-16T10:14:58;6.70;99.90
23471;DHT22;11908;50.806;4.424;2023-01-16T10:20:41;6.70;99.90
23471;DHT22;11908;50.806;4.424;2023-01-16T10:26:28;6.70;99.90
23471;DHT22;11908;50.806;4.424;2023-01-16T10:29:22;6.70;99.90
23471;DHT22;11908;50.806;4.424;2023-01-16T10:34:25;6.60;99.90
23471;DHT22;11908;50.806;4.424;2023-01-16T10:36:56;6.60;99.90
23471;DHT22;11908;50.806;4.424;2023-01-16T10:39:26;6.50;99.90
23471;DHT22;11908;50.806;4.424;2023-01-16T10:45:00;6.40;99.90
23471;DHT22;11908;50.806;4.424;2023-01-16T10:47:53;6.30;99.90
23471;DHT22;11908;50.806;4.424;2023-01-16T10:50:38;6.30;99.90
23471;DHT22;11908;50.806;4.424;2023-01-16T10:53:05;6.30;99.90
23471;DHT22;11908;50.806;4.424;2023-01-16T10:55:33;6.30;99.90
23471;DHT22;11908;50.806;4.424;2023-01-16T10:58:06;6.30;99.90
23471;DHT22;11908;50.806;4.424;2023-01-16T11:00:38;6.40;99.90
23471;DHT22;11908;50.806;4.424;2023-01-16T11:03:10;6.50;99.90
23471;DHT22;11908;50.806;4.424;2023-01-16T11:05:37;6.50;99.90
23471;DHT22;11908;50.806;4.424;2023-01-16T11:10:33;6.50;99.90
23471;DHT22;11908;50.806;4.424;2023-01-16T11:13:00;6.50;99.90
23471;DHT22;11908;50.806;4.424;2023-01-16T11:18:58;6.60;99.90
23471;DHT22;11908;50.806;4.424;2023-01-16T11:21:31;6.70;99.90
23471;DHT22;11908;50.806;4.424;2023-01-16T11:24:20;6.80;99.90
23471;DHT22;11908;50.806;4.424;2023-01-16T11:26:55;6.80;99.90
23471;DHT22;11908;50.806;4.424;2023-01-16T11:29:25;6.70;99.90
23471;DHT22;11908;50.806;4.424;2023-01-16T11:31:54;6.70;99.90
23471;DHT22;11908;50.806;4.424;2023-01-16T11:34:23;6.80;99.90
23471;DHT22;11908;50.806;4.424;2023-01-16T11:37:04;6.90;99.90
23471;DHT22;11908;50.806;4.424;2023-01-16T11:39:33;7.10;99.90
23471;DHT22;11908;50.806;4.424;2023-01-16T11:42:04;7.20;99.90
23471;DHT22;11908;50.806;4.424;2023-01-16T11:44:50;7.20;99.90
23471;DHT22;11908;50.806;4.424;2023-01-16T11:47:43;7.40;99.90
23471;DHT22;11908;50.806;4.424;2023-01-16T11:50:28;7.20;99.90
23471;DHT22;11908;50.806;4.424;2023-01-16T11:52:54;7.10;99.90
23471;DHT22;11908;50.806;4.424;2023-01-16T11:55:39;7.10;99.90
23471;DHT22;11908;50.806;4.424;2023-01-16T12:11:50;7.10;99.90
23471;DHT22;11908;50.806;4.424;2023-01-16T12:14:33;7.10;99.90
23471;DHT22;11908;50.806;4.424;2023-01-16T12:17:31;7.00;99.90
23471;DHT22;11908;50.806;4.424;2023-01-16T12:33:49;6.80;99.90
23471;DHT22;11908;50.806;4.424;2023-01-16T12:41:58;6.90;99.90
23471;DHT22;11908;50.806;4.424;2023-01-16T12:45:09;6.90;99.90
23471;DHT22;11908;50.806;4.424;2023-01-16T12:50:22;6.80;99.90
23471;DHT22;11908;50.806;4.424;2023-01-16T12:52:59;6.70;99.90
23471;DHT22;11908;50.806;4.424;2023-01-16T12:55:53;6.80;99.90
23471;DHT22;11908;50.806;4.424;2023-01-16T12:58:30;6.90;99.90
23471;DHT22;11908;50.806;4.424;2023-01-16T13:01:15;7.00;99.90
23471;DHT22;11908;50.806;4.424;2023-01-16T13:07:13;7.00;99.90
23471;DHT22;11908;50.806;4.424;2023-01-16T13:10:14;6.90;99.90
23471;DHT22;11908;50.806;4.424;2023-01-16T13:13:02;7.00;99.90
23471;DHT22;11908;50.806;4.424;2023-01-16T13:18:45;7.00;99.90
23471;DHT22;11908;50.806;4.424;2023-01-16T13:21:19;7.20;99.90
23471;DHT22;11908;50.806;4.424;2023-01-16T13:23:56;7.20;99.90
23471;DHT22;11908;50.806;4.424;2023-01-16T13:26:24;7.20;99.90
23471;DHT22;11908;50.806;4.424;2023-01-16T13:29:13;7.30;99.90
23471;DHT22;11908;50.806;4.424;2023-01-16T13:31:44;7.50;99.90
23471;DHT22;11908;50.806;4.424;2023-01-16T13:42:14;7.60;99.90
23471;DHT22;11908;50.806;4.424;2023-01-16T13:44:48;7.70;99.90
23471;DHT22;11908;50.806;4.424;2023-01-16T13:47:38;7.70;99.90
23471;DHT22;11908;50.806;4.424;2023-01-16T13:50:19;7.70;99.90
23471;DHT22;11908;50.806;4.424;2023-01-16T13:52:46;7.80;99.90
23471;DHT22;11908;50.806;4.424;2023-01-16T13:55:38;7.70;99.90
23471;DHT22;11908;50.806;4.424;2023-01-16T13:58:21;7.70;99.90
23471;DHT22;11908;50.806;4.424;2023-01-16T14:01:03;7.70;99.90
23471;DHT22;11908;50.806;4.424;2023-01-16T14:03:31;7.80;99.90
23471;DHT22;11908;50.806;4.424;2023-01-16T14:06:20;7.80;99.90
23471;DHT22;11908;50.806;4.424;2023-01-16T14:17:11;7.50;99.90
23471;DHT22;11908;50.806;4.424;2023-01-16T14:19:50;7.50;99.90
23471;DHT22;11908;50.806;4.424;2023-01-16T14:22:24;7.60;99.90
23471;DHT22;11908;50.806;4.424;2023-01-16T14:24:57;7.40;99.90
23471;DHT22;11908;50.806;4.424;2023-01-16T14:27:37;7.20;99.90
23471;DHT22;11908;50.806;4.424;2023-01-16T14:32:45;7.10;99.90
23471;DHT22;11908;50.806;4.424;2023-01-16T14:35:15;7.00;99.90
23471;DHT22;11908;50.806;4.424;2023-01-16T14:40:39;6.80;99.90
23471;DHT22;11908;50.806;4.424;2023-01-16T14:43:31;6.80;99.90
23471;DHT22;11908;50.806;4.424;2023-01-16T14:55:52;6.30;99.90
23471;DHT22;11908;50.806;4.424;2023-01-16T14:59:27;6.30;99.90
23471;DHT22;11908;50.806;4.424;2023-01-16T15:01:47;6.30;99.90
23471;DHT22;11908;50.806;4.424;2023-01-16T15:04:41;6.20;99.90
23471;DHT22;11908;50.806;4.424;2023-01-16T15:07:15;6.30;99.90
23471;DHT22;11908;50.806;4.424;2023-01-16T15:09:42;6.30;99.90
23471;DHT22;11908;50.806;4.424;2023-01-16T15:12:14;6.30;99.90
23471;DHT22;11908;50.806;4.424;2023-01-16T15:15:00;6.20;99.90
23471;DHT22;11908;50.806;4.424;2023-01-16T15:17:38;6.20;99.90
23471;DHT22;11908;50.806;4.424;2023-01-16T15:20:34;6.20;99.90
23471;DHT22;11908;50.806;4.424;2023-01-16T15:23:22;6.10;99.90
23471;DHT22;11908;50.806;4.424;2023-01-16T15:26:04;6.10;99.90
23471;DHT22;11908;50.806;4.424;2023-01-16T15:31:26;6.20;99.90
23471;DHT22;11908;50.806;4.424;2023-01-16T15:36:45;6.10;99.90
23471;DHT22;11908;50.806;4.424;2023-01-16T15:42:01;5.90;99.90
23471;DHT22;11908;50.806;4.424;2023-01-16T15:44:46;5.70;99.90
23471;DHT22;11908;50.806;4.424;2023-01-16T15:47:38;5.60;99.90
23471;DHT22;11908;50.806;4.424;2023-01-16T15:52:40;5.40;99.90
23471;DHT22;11908;50.806;4.424;2023-01-16T15:55:30;5.40;99.90
23471;DHT22;11908;50.806;4.424;2023-01-16T15:58:02;5.40;99.90
23471;DHT22;11908;50.806;4.424;2023-01-16T16:00:33;5.50;99.90
23471;DHT22;11908;50.806;4.424;2023-01-16T16:03:20;5.40;99.90
23471;DHT22;11908;50.806;4.424;2023-01-16T16:05:49;5.30;99.90
23471;DHT22;11908;50.806;4.424;2023-01-16T16:08:18;5.20;99.90
23471;DHT22;11908;50.806;4.424;2023-01-16T16:10:45;5.20;99.90
23471;DHT22;11908;50.806;4.424;2023-01-16T16:13:30;5.20;99.90
23471;DHT22;11908;50.806;4.424;2023-01-16T16:16:22;5.20;99.90
23471;DHT22;11908;50.806;4.424;2023-01-16T16:19:08;5.20;99.90
23471;DHT22;11908;50.806;4.424;2023-01-16T16:21:48;5.10;99.90
23471;DHT22;11908;50.806;4.424;2023-01-16T16:24:35;5.10;99.90
23471;DHT22;11908;50.806;4.424;2023-01-16T16:27:06;5.20;99.90
23471;DHT22;11908;50.806;4.424;2023-01-16T16:29:33;5.20;99.90
23471;DHT22;11908;50.806;4.424;2023-01-16T16:32:10;5.30;99.90
23471;DHT22;11908;50.806;4.424;2023-01-16T16:34:37;5.30;99.90
23471;DHT22;11908;50.806;4.424;2023-01-16T16:37:04;5.30;99.90
23471;DHT22;11908;50.806;4.424;2023-01-16T16:41:59;5.40;99.90
23471;DHT22;11908;50.806;4.424;2023-01-16T16:47:31;5.40;99.90
23471;DHT22;11908;50.806;4.424;2023-01-16T16:49:57;5.40;99.90
23471;DHT22;11908;50.806;4.424;2023-01-16T16:52:36;5.40;99.90
23471;DHT22;11908;50.806;4.424;2023-01-16T16:57:58;5.40;99.90
23471;DHT22;11908;50.806;4.424;2023-01-16T17:00:25;5.40;99.90
23471;DHT22;11908;50.806;4.424;2023-01-16T17:02:57;5.40;99.90
23471;DHT22;11908;50.806;4.424;2023-01-16T17:05:27;5.50;99.90
23471;DHT22;11908;50.806;4.424;2023-01-16T17:07:53;5.50;99.90
23471;DHT22;11908;50.806;4.424;2023-01-16T17:10:19;5.40;99.90
23471;DHT22;11908;50.806;4.424;2023-01-16T17:12:45;5.40;99.90
23471;DHT22;11908;50.806;4.424;2023-01-16T17:15:10;5.40;99.90
23471;DHT22;11908;50.806;4.424;2023-01-16T17:17:42;5.30;99.90
23471;DHT22;11908;50.806;4.424;2023-01-16T17:20:28;5.30;99.90
23471;DHT22;11908;50.806;4.424;2023-01-16T17:22:53;5.40;99.90
23471;DHT22;11908;50.806;4.424;2023-01-16T17:25:20;5.40;99.90
23471;DHT22;11908;50.806;4.424;2023-01-16T17:27:53;5.40;99.90
23471;DHT22;11908;50.806;4.424;2023-01-16T17:30:20;5.50;99.90
23471;DHT22;11908;50.806;4.424;2023-01-16T17:32:53;5.40;99.90
23471;DHT22;11908;50.806;4.424;2023-01-16T17:35:19;5.40;99.90
23471;DHT22;11908;50.806;4.424;2023-01-16T17:37:45;5.30;99.90
23471;DHT22;11908;50.806;4.424;2023-01-16T17:40:11;5.30;99.90
23471;DHT22;11908;50.806;4.424;2023-01-16T17:42:37;5.30;99.90
23471;DHT22;11908;50.806;4.424;2023-01-16T17:45:36;5.30;99.90
23471;DHT22;11908;50.806;4.424;2023-01-16T17:48:22;5.20;99.90
23471;DHT22;11908;50.806;4.424;2023-01-16T17:50:48;5.00;99.90
23471;DHT22;11908;50.806;4.424;2023-01-16T17:53:16;4.90;99.90
23471;DHT22;11908;50.806;4.424;2023-01-16T17:55:47;4.80;99.90
23471;DHT22;11908;50.806;4.424;2023-01-16T17:58:20;4.80;99.90
23471;DHT22;11908;50.806;4.424;2023-01-16T18:00:56;4.60;99.90
23471;DHT22;11908;50.806;4.424;2023-01-16T18:03:23;4.60;99.90
23471;DHT22;11908;50.806;4.424;2023-01-16T18:05:48;4.50;99.90
23471;DHT22;11908;50.806;4.424;2023-01-16T18:08:14;4.40;99.90
23471;DHT22;11908;50.806;4.424;2023-01-16T18:10:41;4.20;99.90
23471;DHT22;11908;50.806;4.424;2023-01-16T18:13:08;4.10;99.90
23471;DHT22;11908;50.806;4.424;2023-01-16T18:15:53;4.00;99.90
23471;DHT22;11908;50.806;4.424;2023-01-16T18:18:37;3.90;99.90
23471;DHT22;11908;50.806;4.424;2023-01-16T18:21:11;3.90;99.90
23471;DHT22;11908;50.806;4.424;2023-01-16T18:23:56;3.90;99.90
23471;DHT22;11908;50.806;4.424;2023-01-16T18:26:23;4.10;99.90
23471;DHT22;11908;50.806;4.424;2023-01-16T18:28:49;4.10;99.90
23471;DHT22;11908;50.806;4.424;2023-01-16T18:31:16;4.10;99.90
23471;DHT22;11908;50.806;4.424;2023-01-16T18:33:42;4.10;99.90
23471;DHT22;11908;50.806;4.424;2023-01-16T18:36:09;4.20;99.90
23471;DHT22;11908;50.806;4.424;2023-01-16T18:38:35;4.30;99.90
23471;DHT22;11908;50.806;4.424;2023-01-16T18:41:19;4.30;99.90
23471;DHT22;11908;50.806;4.424;2023-01-16T18:44:03;4.40;99.90
23471;DHT22;11908;50.806;4.424;2023-01-16T18:47:04;4.40;99.90
23471;DHT22;11908;50.806;4.424;2023-01-16T18:49:49;4.50;99.90
23471;DHT22;11908;50.806;4.424;2023-01-16T18:52:34;4.60;99.90
23471;DHT22;11908;50.806;4.424;2023-01-16T18:55:19;4.60;99.90
23471;DHT22;11908;50.806;4.424;2023-01-16T18:58:06;4.80;99.90
23471;DHT22;11908;50.806;4.424;2023-01-16T19:00:54;4.70;99.90
23471;DHT22;11908;50.806;4.424;2023-01-16T19:03:38;4.70;99.90